createdAt,value
2022-08-25T00:00:05.695Z,18.85
2022-08-25T00:00:37.302Z,18.84
2022-08-25T00:01:13.415Z,18.87
2022-08-25T00:02:06.695Z,18.84
2022-08-25T00:02:38.365Z,18.87
2022-08-25T00:03:11.145Z,18.83
2022-08-25T00:03:44.108Z,18.87
2022-08-25T00:04:17.270Z,18.87
2022-08-25T00:04:53.786Z,18.91
2022-08-25T00:05:29.482Z,18.88
2022-08-25T00:06:06.157Z,18.88
2022-08-25T00:06:39.930Z,18.87
2022-08-25T00:07:12.217Z,18.85
2022-08-25T00:07:50.109Z,18.83
2022-08-25T00:08:21.669Z,18.84
2022-08-25T00:08:53.342Z,18.84
2022-08-25T00:09:27.689Z,18.87
2022-08-25T00:09:59.265Z,18.84
2022-08-25T00:10:31.325Z,18.83
2022-08-25T00:11:03.808Z,18.78
2022-08-25T00:11:37.049Z,18.88
2022-08-25T00:12:08.726Z,18.88
2022-08-25T00:12:40.304Z,18.89
2022-08-25T00:13:12.643Z,18.92
2022-08-25T00:13:47.146Z,18.95
2022-08-25T00:14:23.260Z,18.94
2022-08-25T00:14:55.153Z,18.98
2022-08-25T00:15:27.511Z,18.95
2022-08-25T00:15:59.404Z,18.98
2022-08-25T00:16:31.673Z,18.96
2022-08-25T00:17:04.666Z,18.92
2022-08-25T00:17:36.309Z,18.98
2022-08-25T00:18:11.411Z,18.92
2022-08-25T00:18:55.359Z,18.89
2022-08-25T00:19:32.182Z,18.88
2022-08-25T00:20:05.829Z,18.85
2022-08-25T00:20:37.422Z,18.84
2022-08-25T00:21:15.375Z,18.85
2022-08-25T00:21:47.118Z,18.84
2022-08-25T00:22:18.721Z,18.84
2022-08-25T00:22:50.311Z,18.87
2022-08-25T00:23:21.937Z,18.79
2022-08-25T00:23:54.294Z,18.78
2022-08-25T00:24:26.029Z,18.87
2022-08-25T00:24:57.693Z,18.83
2022-08-25T00:25:29.825Z,18.81
2022-08-25T00:26:02.061Z,18.83
2022-08-25T00:26:33.643Z,18.81
2022-08-25T00:27:05.834Z,18.87
2022-08-25T00:27:37.422Z,18.85
2022-08-25T00:28:10.406Z,18.85
2022-08-25T00:28:43.384Z,18.83
2022-08-25T00:29:15.642Z,18.83
2022-08-25T00:29:47.494Z,18.84
2022-08-25T00:30:19.701Z,18.87
2022-08-25T00:30:51.497Z,18.87
2022-08-25T00:31:23.748Z,18.88
2022-08-25T00:32:09.830Z,18.88
2022-08-25T00:32:41.669Z,18.83
2022-08-25T00:33:13.949Z,18.81
2022-08-25T00:33:47.000Z,18.83
2022-08-25T00:34:23.278Z,18.81
2022-08-25T00:34:54.875Z,18.85
2022-08-25T00:35:27.083Z,18.84
2022-08-25T00:36:00.071Z,18.84
2022-08-25T00:36:31.653Z,18.84
2022-08-25T00:37:07.322Z,18.85
2022-08-25T00:37:38.973Z,18.79
2022-08-25T00:38:11.791Z,18.84
2022-08-25T00:38:45.312Z,18.85
2022-08-25T00:39:17.497Z,18.91
2022-08-25T00:39:49.125Z,18.92
2022-08-25T00:40:20.930Z,18.91
2022-08-25T00:41:05.846Z,18.94
2022-08-25T00:41:39.941Z,18.94
2022-08-25T00:42:15.906Z,18.92
2022-08-25T00:42:47.922Z,18.85
2022-08-25T00:43:19.584Z,18.92
2022-08-25T00:43:57.901Z,18.89
2022-08-25T00:44:32.409Z,18.84
2022-08-25T00:45:06.622Z,18.84
2022-08-25T00:45:39.375Z,18.84
2022-08-25T00:46:17.583Z,18.84
2022-08-25T00:46:53.379Z,18.81
2022-08-25T00:47:25.461Z,18.78
2022-08-25T00:48:00.075Z,18.78
2022-08-25T00:48:31.881Z,18.75
2022-08-25T00:49:08.183Z,18.72
2022-08-25T00:49:57.427Z,18.72
2022-08-25T00:50:31.113Z,18.68
2022-08-25T00:51:05.315Z,18.69
2022-08-25T00:51:38.916Z,18.68
2022-08-25T00:52:13.849Z,18.69
2022-08-25T00:52:49.765Z,18.69
2022-08-25T00:53:21.404Z,18.69
2022-08-25T00:53:53.021Z,18.68
2022-08-25T00:54:29.055Z,18.71
2022-08-25T00:55:08.164Z,18.68
2022-08-25T00:55:40.666Z,18.65
2022-08-25T00:56:14.301Z,18.69
2022-08-25T00:56:47.187Z,18.74
2022-08-25T00:57:34.071Z,18.75
2022-08-25T00:58:14.212Z,18.72
2022-08-25T00:58:45.833Z,18.67
2022-08-25T00:59:20.349Z,18.64
2022-08-25T00:59:52.164Z,18.65
2022-08-25T01:00:30.948Z,18.69
2022-08-25T01:01:02.809Z,18.74
2022-08-25T01:01:34.941Z,18.76
2022-08-25T01:02:08.025Z,18.69
2022-08-25T01:02:45.859Z,18.72
2022-08-25T01:03:19.360Z,18.72
2022-08-25T01:03:51.173Z,18.71
2022-08-25T01:04:23.769Z,18.69
2022-08-25T01:04:55.534Z,18.69
2022-08-25T01:05:30.698Z,18.65
2022-08-25T01:06:04.085Z,18.69
2022-08-25T01:06:39.330Z,18.72
2022-08-25T01:07:17.478Z,18.76
2022-08-25T01:07:50.953Z,18.76
2022-08-25T01:08:29.114Z,18.76
2022-08-25T01:09:00.882Z,18.78
2022-08-25T01:09:33.441Z,18.78
2022-08-25T01:10:07.921Z,18.76
2022-08-25T01:10:43.016Z,18.76
2022-08-25T01:11:14.805Z,18.76
2022-08-25T01:11:47.805Z,18.76
2022-08-25T01:12:20.486Z,18.78
2022-08-25T01:12:55.709Z,18.71
2022-08-25T01:13:33.413Z,18.69
2022-08-25T01:14:06.671Z,18.67
2022-08-25T01:14:38.539Z,18.64
2022-08-25T01:15:13.141Z,18.68
2022-08-25T01:15:46.586Z,18.65
2022-08-25T01:16:18.361Z,18.71
2022-08-25T01:16:51.112Z,18.74
2022-08-25T01:17:28.145Z,18.75
2022-08-25T01:18:01.175Z,18.74
2022-08-25T01:18:56.437Z,18.71
2022-08-25T01:19:29.499Z,18.74
2022-08-25T01:20:01.073Z,18.75
2022-08-25T01:20:33.106Z,18.76
2022-08-25T01:21:04.725Z,18.72
2022-08-25T01:21:46.609Z,18.69
2022-08-25T01:22:18.675Z,18.67
2022-08-25T01:22:55.045Z,18.69
2022-08-25T01:23:27.469Z,18.63
2022-08-25T01:24:00.259Z,18.64
2022-08-25T01:24:53.530Z,18.61
2022-08-25T01:25:33.913Z,18.55
2022-08-25T01:26:13.329Z,18.58
2022-08-25T01:26:44.977Z,18.54
2022-08-25T01:27:16.950Z,18.53
2022-08-25T01:27:48.979Z,18.54
2022-08-25T01:28:21.488Z,18.55
2022-08-25T01:29:12.242Z,18.58
2022-08-25T01:29:43.844Z,18.61
2022-08-25T01:30:15.601Z,18.58
2022-08-25T01:30:47.876Z,18.58
2022-08-25T01:31:23.732Z,18.57
2022-08-25T01:31:59.604Z,18.60
2022-08-25T01:32:34.075Z,18.63
2022-08-25T01:33:07.583Z,18.63
2022-08-25T01:33:39.141Z,18.61
2022-08-25T01:34:12.466Z,18.64
2022-08-25T01:34:45.724Z,18.64
2022-08-25T01:35:18.596Z,18.63
2022-08-25T01:35:50.346Z,18.64
2022-08-25T01:36:22.802Z,18.61
2022-08-25T01:36:55.623Z,18.64
2022-08-25T01:37:27.210Z,18.63
2022-08-25T01:38:00.780Z,18.69
2022-08-25T01:38:32.461Z,18.67
2022-08-25T01:39:05.405Z,18.68
2022-08-25T01:39:37.004Z,18.65
2022-08-25T01:40:09.339Z,18.68
2022-08-25T01:40:42.896Z,18.67
2022-08-25T01:41:21.348Z,18.63
2022-08-25T01:42:05.438Z,18.57
2022-08-25T01:42:54.777Z,18.55
2022-08-25T01:43:38.140Z,18.51
2022-08-25T01:44:10.909Z,18.48
2022-08-25T01:44:48.048Z,18.48
2022-08-25T01:45:20.945Z,18.47
2022-08-25T01:45:52.677Z,18.53
2022-08-25T01:46:24.795Z,18.48
2022-08-25T01:46:56.483Z,18.44
2022-08-25T01:47:28.132Z,18.50
2022-08-25T01:47:59.776Z,18.55
2022-08-25T01:48:32.864Z,18.47
2022-08-25T01:49:06.901Z,18.53
2022-08-25T01:49:38.648Z,18.47
2022-08-25T01:50:10.411Z,18.51
2022-08-25T01:50:43.927Z,18.48
2022-08-25T01:51:16.420Z,18.48
2022-08-25T01:51:52.853Z,18.47
2022-08-25T01:52:30.173Z,18.48
2022-08-25T01:53:14.629Z,18.44
2022-08-25T01:53:46.301Z,18.43
2022-08-25T01:54:17.897Z,18.38
2022-08-25T01:54:49.621Z,18.46
2022-08-25T01:55:21.246Z,18.48
2022-08-25T01:55:54.204Z,18.51
2022-08-25T01:56:25.982Z,18.50
2022-08-25T01:56:58.893Z,18.51
2022-08-25T01:57:31.671Z,18.53
2022-08-25T01:58:03.341Z,18.57
2022-08-25T01:58:36.987Z,18.57
2022-08-25T01:59:08.793Z,18.48
2022-08-25T01:59:41.202Z,18.48
2022-08-25T02:00:15.123Z,18.53
2022-08-25T02:01:24.200Z,18.47
2022-08-25T02:01:59.621Z,18.46
2022-08-25T02:02:31.787Z,18.46
2022-08-25T02:03:04.708Z,18.53
2022-08-25T02:03:46.407Z,18.47
2022-08-25T02:04:19.711Z,18.50
2022-08-25T02:04:53.829Z,18.46
2022-08-25T02:05:25.406Z,18.55
2022-08-25T02:05:58.427Z,18.55
2022-08-25T02:06:32.478Z,18.60
2022-08-25T02:07:07.560Z,18.58
2022-08-25T02:07:39.148Z,18.54
2022-08-25T02:08:11.661Z,18.48
2022-08-25T02:08:43.574Z,18.47
2022-08-25T02:09:17.234Z,18.40
2022-08-25T02:09:49.221Z,18.43
2022-08-25T02:10:22.402Z,18.37
2022-08-25T02:10:55.735Z,18.43
2022-08-25T02:11:27.978Z,18.44
2022-08-25T02:12:00.143Z,18.44
2022-08-25T02:12:32.941Z,18.47
2022-08-25T02:13:05.512Z,18.47
2022-08-25T02:13:40.934Z,18.43
2022-08-25T02:14:13.882Z,18.38
2022-08-25T02:14:46.094Z,18.46
2022-08-25T02:15:17.713Z,18.44
2022-08-25T02:15:51.922Z,18.43
2022-08-25T02:16:30.933Z,18.47
2022-08-25T02:17:04.415Z,18.43
2022-08-25T02:17:36.869Z,18.34
2022-08-25T02:18:08.836Z,18.40
2022-08-25T02:18:40.593Z,18.37
2022-08-25T02:19:12.436Z,18.37
2022-08-25T02:19:44.046Z,18.38
2022-08-25T02:20:15.633Z,18.40
2022-08-25T02:20:47.671Z,18.41
2022-08-25T02:21:19.464Z,18.43
2022-08-25T02:21:51.775Z,18.40
2022-08-25T02:22:24.261Z,18.38
2022-08-25T02:22:56.835Z,18.40
2022-08-25T02:23:28.988Z,18.44
2022-08-25T02:24:01.244Z,18.46
2022-08-25T02:24:32.900Z,18.47
2022-08-25T02:25:05.764Z,18.43
2022-08-25T02:25:39.853Z,18.48
2022-08-25T02:26:16.647Z,18.44
2022-08-25T02:26:48.367Z,18.40
2022-08-25T02:27:19.987Z,18.38
2022-08-25T02:27:51.609Z,18.41
2022-08-25T02:28:23.555Z,18.41
2022-08-25T02:28:55.199Z,18.43
2022-08-25T02:29:26.808Z,18.40
2022-08-25T02:29:58.406Z,18.36
2022-08-25T02:30:30.088Z,18.29
2022-08-25T02:31:01.923Z,18.34
2022-08-25T02:31:34.167Z,18.34
2022-08-25T02:32:05.989Z,18.36
2022-08-25T02:32:37.701Z,18.37
2022-08-25T02:33:09.913Z,18.40
2022-08-25T02:33:41.687Z,18.36
2022-08-25T02:34:15.133Z,18.37
2022-08-25T02:34:46.797Z,18.40
2022-08-25T02:35:18.491Z,18.34
2022-08-25T02:35:50.061Z,18.34
2022-08-25T02:36:22.485Z,18.36
2022-08-25T02:36:54.089Z,18.43
2022-08-25T02:37:25.817Z,18.46
2022-08-25T02:37:57.381Z,18.43
2022-08-25T02:38:30.029Z,18.48
2022-08-25T02:39:02.308Z,18.48
2022-08-25T02:39:36.775Z,18.50
2022-08-25T02:40:09.144Z,18.53
2022-08-25T02:40:40.824Z,18.47
2022-08-25T02:41:19.676Z,18.48
2022-08-25T02:41:51.535Z,18.47
2022-08-25T02:42:24.453Z,18.50
2022-08-25T02:42:57.397Z,18.48
2022-08-25T02:43:29.613Z,18.38
2022-08-25T02:44:02.627Z,18.46
2022-08-25T02:44:34.229Z,18.43
2022-08-25T02:45:07.655Z,18.48
2022-08-25T02:45:39.305Z,18.41
2022-08-25T02:46:12.643Z,18.40
2022-08-25T02:46:44.233Z,18.33
2022-08-25T02:47:16.386Z,18.36
2022-08-25T02:47:48.241Z,18.37
2022-08-25T02:48:19.963Z,18.41
2022-08-25T02:48:52.953Z,18.38
2022-08-25T02:49:24.513Z,18.36
2022-08-25T02:49:56.701Z,18.34
2022-08-25T02:50:28.292Z,18.33
2022-08-25T02:51:01.401Z,18.30
2022-08-25T02:51:34.526Z,18.24
2022-08-25T02:52:06.227Z,18.26
2022-08-25T02:52:38.145Z,18.26
2022-08-25T02:53:09.709Z,18.27
2022-08-25T02:53:42.958Z,18.30
2022-08-25T02:54:14.933Z,18.33
2022-08-25T02:54:46.603Z,18.30
2022-08-25T02:55:19.226Z,18.27
2022-08-25T02:55:51.002Z,18.24
2022-08-25T02:56:22.647Z,18.23
2022-08-25T02:56:54.253Z,18.29
2022-08-25T02:57:25.813Z,18.27
2022-08-25T02:57:57.385Z,18.26
2022-08-25T02:58:29.126Z,18.18
2022-08-25T02:59:01.149Z,18.23
2022-08-25T02:59:33.098Z,18.22
2022-08-25T03:00:06.005Z,18.17
2022-08-25T03:00:38.137Z,18.18
2022-08-25T03:01:12.031Z,18.24
2022-08-25T03:01:44.554Z,18.26
2022-08-25T03:02:16.747Z,18.29
2022-08-25T03:02:48.329Z,18.26
2022-08-25T03:03:20.649Z,18.30
2022-08-25T03:03:52.456Z,18.32
2022-08-25T03:04:24.241Z,18.27
2022-08-25T03:04:55.892Z,18.32
2022-08-25T03:05:27.787Z,18.33
2022-08-25T03:06:00.429Z,18.34
2022-08-25T03:06:32.003Z,18.34
2022-08-25T03:07:03.833Z,18.36
2022-08-25T03:07:36.388Z,18.32
2022-08-25T03:08:11.005Z,18.29
2022-08-25T03:08:43.277Z,18.27
2022-08-25T03:09:15.697Z,18.29
2022-08-25T03:09:47.885Z,18.32
2022-08-25T03:10:20.054Z,18.30
2022-08-25T03:10:52.053Z,18.27
2022-08-25T03:11:26.634Z,18.34
2022-08-25T03:11:58.238Z,18.27
2022-08-25T03:12:31.098Z,18.24
2022-08-25T03:13:02.826Z,18.23
2022-08-25T03:13:34.957Z,18.24
2022-08-25T03:14:09.193Z,18.26
2022-08-25T03:14:41.205Z,18.26
2022-08-25T03:15:16.812Z,18.26
2022-08-25T03:15:49.302Z,18.24
2022-08-25T03:16:21.481Z,18.23
2022-08-25T03:16:53.201Z,18.23
2022-08-25T03:17:26.277Z,18.24
2022-08-25T03:18:00.009Z,18.24
2022-08-25T03:18:31.951Z,18.27
2022-08-25T03:19:03.816Z,18.24
2022-08-25T03:19:37.227Z,18.22
2022-08-25T03:20:09.576Z,18.23
2022-08-25T03:20:43.069Z,18.10
2022-08-25T03:21:15.874Z,18.12
2022-08-25T03:21:48.485Z,18.16
2022-08-25T03:22:21.242Z,18.17
2022-08-25T03:22:52.935Z,18.16
2022-08-25T03:23:24.701Z,18.18
2022-08-25T03:23:57.067Z,18.18
2022-08-25T03:24:28.679Z,18.17
2022-08-25T03:25:24.075Z,18.18
2022-08-25T03:26:14.989Z,18.17
2022-08-25T03:26:59.192Z,18.16
2022-08-25T03:27:30.756Z,18.17
2022-08-25T03:28:03.219Z,18.16
2022-08-25T03:28:35.693Z,18.13
2022-08-25T03:29:08.304Z,18.10
2022-08-25T03:29:40.638Z,18.06
2022-08-25T03:30:13.347Z,18.06
2022-08-25T03:30:45.394Z,18.06
2022-08-25T03:31:17.264Z,18.03
2022-08-25T03:31:49.308Z,18.03
2022-08-25T03:32:21.013Z,18.00
2022-08-25T03:32:52.947Z,17.97
2022-08-25T03:33:24.517Z,17.95
2022-08-25T03:33:56.142Z,17.99
2022-08-25T03:34:29.662Z,17.96
2022-08-25T03:35:01.977Z,17.93
2022-08-25T03:35:33.628Z,17.95
2022-08-25T03:36:06.699Z,17.99
2022-08-25T03:36:38.660Z,18.00
2022-08-25T03:37:10.488Z,18.00
2022-08-25T03:37:42.095Z,17.99
2022-08-25T03:38:13.684Z,17.99
2022-08-25T03:38:45.428Z,18.03
2022-08-25T03:39:18.962Z,18.06
2022-08-25T03:39:50.568Z,18.03
2022-08-25T03:40:23.352Z,18.02
2022-08-25T03:40:55.049Z,18.02
2022-08-25T03:41:29.583Z,18.02
2022-08-25T03:42:03.595Z,18.02
2022-08-25T03:42:36.186Z,18.00
2022-08-25T03:43:07.838Z,18.05
2022-08-25T03:43:39.975Z,18.05
2022-08-25T03:44:11.565Z,18.05
2022-08-25T03:44:43.135Z,18.06
2022-08-25T03:45:16.503Z,18.06
2022-08-25T03:45:48.583Z,18.06
2022-08-25T03:46:23.276Z,18.05
2022-08-25T03:46:54.846Z,17.97
2022-08-25T03:47:29.304Z,18.00
2022-08-25T03:48:00.868Z,18.00
2022-08-25T03:48:32.533Z,18.00
2022-08-25T03:49:06.455Z,18.02
2022-08-25T03:49:38.035Z,18.03
2022-08-25T03:50:11.346Z,17.99
2022-08-25T03:50:50.536Z,17.95
2022-08-25T03:51:25.886Z,17.95
2022-08-25T03:51:57.481Z,17.99
2022-08-25T03:52:29.080Z,17.97
2022-08-25T03:53:00.817Z,18.00
2022-08-25T03:53:32.407Z,18.03
2022-08-25T03:54:04.952Z,18.00
2022-08-25T03:54:36.537Z,18.00
2022-08-25T03:55:10.455Z,18.02
2022-08-25T03:55:42.383Z,17.99
2022-08-25T03:56:13.937Z,18.00
2022-08-25T03:56:45.632Z,18.00
2022-08-25T03:57:17.212Z,17.99
2022-08-25T03:57:48.956Z,17.99
2022-08-25T03:58:21.930Z,18.05
2022-08-25T03:58:54.151Z,18.07
2022-08-25T03:59:27.154Z,18.02
2022-08-25T03:59:58.769Z,18.03
2022-08-25T04:00:31.266Z,18.05
2022-08-25T04:01:03.016Z,18.05
2022-08-25T04:01:35.883Z,18.05
2022-08-25T04:02:08.597Z,17.99
2022-08-25T04:02:41.212Z,18.05
2022-08-25T04:03:12.843Z,17.96
2022-08-25T04:03:44.441Z,18.02
2022-08-25T04:04:16.268Z,17.96
2022-08-25T04:04:47.873Z,18.00
2022-08-25T04:05:20.290Z,18.03
2022-08-25T04:05:52.228Z,18.05
2022-08-25T04:06:23.862Z,18.03
2022-08-25T04:06:55.509Z,18.00
2022-08-25T04:07:27.323Z,18.02
2022-08-25T04:07:58.897Z,18.00
2022-08-25T04:08:30.482Z,17.99
2022-08-25T04:09:02.203Z,18.00
2022-08-25T04:09:36.847Z,17.99
2022-08-25T04:10:11.097Z,18.00
2022-08-25T04:10:42.656Z,17.97
2022-08-25T04:11:17.666Z,17.96
2022-08-25T04:11:52.918Z,18.02
2022-08-25T04:12:25.264Z,18.05
2022-08-25T04:12:57.413Z,18.03
2022-08-25T04:13:30.178Z,18.07
2022-08-25T04:14:02.395Z,18.09
2022-08-25T04:14:35.557Z,18.09
2022-08-25T04:15:08.655Z,18.05
2022-08-25T04:15:44.223Z,18.03
2022-08-25T04:16:19.291Z,18.03
2022-08-25T04:16:52.804Z,18.03
2022-08-25T04:17:24.862Z,18.05
2022-08-25T04:17:57.077Z,18.03
2022-08-25T04:18:31.049Z,18.03
2022-08-25T04:19:06.065Z,18.07
2022-08-25T04:19:38.470Z,18.10
2022-08-25T04:20:11.407Z,18.09
2022-08-25T04:20:47.468Z,18.09
2022-08-25T04:21:20.449Z,18.12
2022-08-25T04:21:56.733Z,18.07
2022-08-25T04:22:29.935Z,18.12
2022-08-25T04:23:01.640Z,18.10
2022-08-25T04:23:33.211Z,18.16
2022-08-25T04:24:09.126Z,18.14
2022-08-25T04:24:40.720Z,18.16
2022-08-25T04:25:13.000Z,18.14
2022-08-25T04:25:46.207Z,18.12
2022-08-25T04:26:27.831Z,18.16
2022-08-25T04:26:59.505Z,18.16
2022-08-25T04:27:31.144Z,18.17
2022-08-25T04:28:02.959Z,18.17
2022-08-25T04:28:34.520Z,18.20
2022-08-25T04:29:07.841Z,18.22
2022-08-25T04:29:39.449Z,18.20
2022-08-25T04:30:11.724Z,18.23
2022-08-25T04:30:43.831Z,18.23
2022-08-25T04:31:17.175Z,18.20
2022-08-25T04:31:52.302Z,18.23
2022-08-25T04:32:23.925Z,18.18
2022-08-25T04:32:55.503Z,18.23
2022-08-25T04:33:27.162Z,18.27
2022-08-25T04:34:01.285Z,18.22
2022-08-25T04:34:32.897Z,18.23
2022-08-25T04:35:05.325Z,18.24
2022-08-25T04:35:37.009Z,18.24
2022-08-25T04:36:14.156Z,18.22
2022-08-25T04:36:46.356Z,18.22
2022-08-25T04:37:24.285Z,18.23
2022-08-25T04:37:55.855Z,18.23
2022-08-25T04:38:27.589Z,18.22
2022-08-25T04:38:59.613Z,18.16
2022-08-25T04:39:31.636Z,18.17
2022-08-25T04:40:04.505Z,18.18
2022-08-25T04:40:36.184Z,18.16
2022-08-25T04:41:09.229Z,18.16
2022-08-25T04:41:40.808Z,18.13
2022-08-25T04:42:12.473Z,18.14
2022-08-25T04:42:45.065Z,18.16
2022-08-25T04:43:19.718Z,18.14
2022-08-25T04:43:52.178Z,18.14
2022-08-25T04:44:23.881Z,18.17
2022-08-25T04:44:55.844Z,18.17
2022-08-25T04:45:27.517Z,18.22
2022-08-25T04:45:59.624Z,18.18
2022-08-25T04:46:33.709Z,18.22
2022-08-25T04:47:05.471Z,18.22
2022-08-25T04:47:39.501Z,18.22
2022-08-25T04:48:11.161Z,18.26
2022-08-25T04:48:43.777Z,18.22
2022-08-25T04:49:15.374Z,18.29
2022-08-25T04:49:47.398Z,18.26
2022-08-25T04:50:19.097Z,18.26
2022-08-25T04:50:50.974Z,18.29
2022-08-25T04:51:29.405Z,18.32
2022-08-25T04:52:00.974Z,18.29
2022-08-25T04:52:32.617Z,18.30
2022-08-25T04:53:04.186Z,18.34
2022-08-25T04:53:38.414Z,18.38
2022-08-25T04:54:13.522Z,18.36
2022-08-25T04:54:45.433Z,18.38
2022-08-25T04:55:18.214Z,18.38
2022-08-25T04:55:50.329Z,18.41
2022-08-25T04:56:25.114Z,18.48
2022-08-25T04:56:58.798Z,18.48
2022-08-25T04:57:30.567Z,18.50
2022-08-25T04:58:02.165Z,18.46
2022-08-25T04:58:34.258Z,18.50
2022-08-25T04:59:09.531Z,18.53
2022-08-25T04:59:41.093Z,18.54
2022-08-25T05:00:13.351Z,18.58
2022-08-25T05:00:46.645Z,18.60
2022-08-25T05:01:21.413Z,18.63
2022-08-25T05:01:53.189Z,18.60
2022-08-25T05:02:25.301Z,18.63
2022-08-25T05:02:57.668Z,18.61
2022-08-25T05:03:29.397Z,18.65
2022-08-25T05:04:03.568Z,18.71
2022-08-25T05:04:36.266Z,18.69
2022-08-25T05:05:08.206Z,18.71
2022-08-25T05:05:40.221Z,18.68
2022-08-25T05:06:15.814Z,18.71
2022-08-25T05:06:47.963Z,18.74
2022-08-25T05:07:19.744Z,18.71
2022-08-25T05:07:52.930Z,18.78
2022-08-25T05:08:25.290Z,18.76
2022-08-25T05:08:58.275Z,18.81
2022-08-25T05:09:32.582Z,18.84
2022-08-25T05:10:04.882Z,18.87
2022-08-25T05:10:40.917Z,18.89
2022-08-25T05:11:16.573Z,18.91
2022-08-25T05:11:48.182Z,18.94
2022-08-25T05:12:20.804Z,18.89
2022-08-25T05:12:52.429Z,18.95
2022-08-25T05:13:25.873Z,18.99
2022-08-25T05:14:01.370Z,18.98
2022-08-25T05:14:33.162Z,18.99
2022-08-25T05:15:25.497Z,19.05
2022-08-25T05:16:00.380Z,19.06
2022-08-25T05:16:32.215Z,19.08
2022-08-25T05:17:03.838Z,19.09
2022-08-25T05:17:35.402Z,19.13
2022-08-25T05:18:07.162Z,19.13
2022-08-25T05:18:39.666Z,19.13
2022-08-25T05:19:11.258Z,19.15
2022-08-25T05:19:42.973Z,19.19
2022-08-25T05:20:14.621Z,19.20
2022-08-25T05:20:46.470Z,19.19
2022-08-25T05:21:23.353Z,19.25
2022-08-25T05:21:55.017Z,19.26
2022-08-25T05:22:29.732Z,19.29
2022-08-25T05:23:01.497Z,19.29
2022-08-25T05:23:33.527Z,19.29
2022-08-25T05:24:05.289Z,19.32
2022-08-25T05:24:37.086Z,19.32
2022-08-25T05:25:08.822Z,19.33
2022-08-25T05:25:40.406Z,19.37
2022-08-25T05:26:20.358Z,19.36
2022-08-25T05:26:52.260Z,19.39
2022-08-25T05:27:23.824Z,19.42
2022-08-25T05:27:55.565Z,19.39
2022-08-25T05:28:27.162Z,19.42
2022-08-25T05:29:01.295Z,19.43
2022-08-25T05:29:32.893Z,19.43
2022-08-25T05:30:05.043Z,19.46
2022-08-25T05:30:41.883Z,19.47
2022-08-25T05:31:15.151Z,19.42
2022-08-25T05:31:50.416Z,19.49
2022-08-25T05:32:22.461Z,19.53
2022-08-25T05:32:54.193Z,19.54
2022-08-25T05:33:26.546Z,19.63
2022-08-25T05:34:06.710Z,19.63
2022-08-25T05:34:38.267Z,19.66
2022-08-25T05:35:10.037Z,19.66
2022-08-25T05:35:41.643Z,19.71
2022-08-25T05:36:14.938Z,19.73
2022-08-25T05:36:47.231Z,19.71
2022-08-25T05:37:18.808Z,19.69
2022-08-25T05:37:50.378Z,19.64
2022-08-25T05:38:22.754Z,19.66
2022-08-25T05:38:54.417Z,19.64
2022-08-25T05:39:26.832Z,19.67
2022-08-25T05:39:58.846Z,19.69
2022-08-25T05:40:31.962Z,19.69
2022-08-25T05:41:10.530Z,19.69
2022-08-25T05:41:42.186Z,19.70
2022-08-25T05:42:13.896Z,19.73
2022-08-25T05:42:45.480Z,19.73
2022-08-25T05:43:17.080Z,19.74
2022-08-25T05:43:49.526Z,19.74
2022-08-25T05:44:21.586Z,19.78
2022-08-25T05:44:53.228Z,19.78
2022-08-25T05:45:25.363Z,19.77
2022-08-25T05:45:58.391Z,19.85
2022-08-25T05:46:31.782Z,19.84
2022-08-25T05:47:03.852Z,19.90
2022-08-25T05:47:35.432Z,19.91
2022-08-25T05:48:07.318Z,19.91
2022-08-25T05:48:39.499Z,20.02
2022-08-25T05:49:11.050Z,20.07
2022-08-25T05:49:43.046Z,20.10
2022-08-25T05:50:15.904Z,20.20
2022-08-25T05:51:01.438Z,20.14
2022-08-25T05:51:34.053Z,20.15
2022-08-25T05:52:05.710Z,20.21
2022-08-25T05:52:38.006Z,20.24
2022-08-25T05:53:09.556Z,20.35
2022-08-25T05:53:44.328Z,20.33
2022-08-25T05:54:16.058Z,20.29
2022-08-25T05:54:47.813Z,20.33
2022-08-25T05:55:19.621Z,20.26
2022-08-25T05:55:54.110Z,20.32
2022-08-25T05:56:25.682Z,20.29
2022-08-25T05:56:58.010Z,20.38
2022-08-25T05:57:30.748Z,20.46
2022-08-25T05:58:02.383Z,20.43
2022-08-25T05:58:34.066Z,20.33
2022-08-25T05:59:09.275Z,20.24
2022-08-25T05:59:41.117Z,20.26
2022-08-25T06:00:13.557Z,20.35
2022-08-25T06:00:45.689Z,20.35
2022-08-25T06:01:45.582Z,20.33
2022-08-25T06:02:35.732Z,20.31
2022-08-25T06:03:07.540Z,20.35
2022-08-25T06:03:39.189Z,20.35
2022-08-25T06:04:11.003Z,20.38
2022-08-25T06:04:42.747Z,20.39
2022-08-25T06:05:21.579Z,20.32
2022-08-25T06:05:53.136Z,20.38
2022-08-25T06:06:24.731Z,20.39
2022-08-25T06:06:56.323Z,20.51
2022-08-25T06:07:27.994Z,20.53
2022-08-25T06:08:00.413Z,20.62
2022-08-25T06:08:33.691Z,20.56
2022-08-25T06:09:06.775Z,20.57
2022-08-25T06:09:40.103Z,20.69
2022-08-25T06:10:11.936Z,20.72
2022-08-25T06:10:43.545Z,20.76
2022-08-25T06:11:16.502Z,20.81
2022-08-25T06:11:52.838Z,20.86
2022-08-25T06:12:26.249Z,20.81
2022-08-25T06:12:58.122Z,20.73
2022-08-25T06:13:30.237Z,20.80
2022-08-25T06:14:01.933Z,20.91
2022-08-25T06:14:33.814Z,20.94
2022-08-25T06:15:05.914Z,20.99
2022-08-25T06:15:37.506Z,21.18
2022-08-25T06:16:09.155Z,21.26
2022-08-25T06:16:40.855Z,21.48
2022-08-25T06:17:12.774Z,21.47
2022-08-25T06:17:44.529Z,21.49
2022-08-25T06:18:16.548Z,21.27
2022-08-25T06:18:48.122Z,21.26
2022-08-25T06:19:21.158Z,21.18
2022-08-25T06:19:54.928Z,21.27
2022-08-25T06:20:28.707Z,21.21
2022-08-25T06:21:08.905Z,21.27
2022-08-25T06:21:40.651Z,21.24
2022-08-25T06:22:12.209Z,21.31
2022-08-25T06:22:44.409Z,21.28
2022-08-25T06:23:18.286Z,21.28
2022-08-25T06:23:50.261Z,21.31
2022-08-25T06:24:26.411Z,21.28
2022-08-25T06:24:58.003Z,21.23
2022-08-25T06:25:32.725Z,21.34
2022-08-25T06:26:04.574Z,21.41
2022-08-25T06:26:37.313Z,21.32
2022-08-25T06:27:09.049Z,21.32
2022-08-25T06:27:41.309Z,21.39
2022-08-25T06:28:12.878Z,21.47
2022-08-25T06:28:44.437Z,21.52
2022-08-25T06:29:16.045Z,21.57
2022-08-25T06:29:47.675Z,21.54
2022-08-25T06:30:24.556Z,21.44
2022-08-25T06:31:02.151Z,21.54
2022-08-25T06:31:33.789Z,21.52
2022-08-25T06:32:05.957Z,21.55
2022-08-25T06:32:39.541Z,21.57
2022-08-25T06:33:11.549Z,21.58
2022-08-25T06:33:44.256Z,21.58
2022-08-25T06:34:16.930Z,21.55
2022-08-25T06:34:48.492Z,21.49
2022-08-25T06:35:20.693Z,21.62
2022-08-25T06:35:56.064Z,21.69
2022-08-25T06:36:28.293Z,21.79
2022-08-25T06:36:59.926Z,21.79
2022-08-25T06:37:31.493Z,21.86
2022-08-25T06:38:03.123Z,21.89
2022-08-25T06:38:34.926Z,21.89
2022-08-25T06:39:06.615Z,21.79
2022-08-25T06:39:38.215Z,21.81
2022-08-25T06:40:11.163Z,21.90
2022-08-25T06:40:42.789Z,21.89
2022-08-25T06:41:14.669Z,21.90
2022-08-25T06:41:46.520Z,21.93
2022-08-25T06:42:18.361Z,21.95
2022-08-25T06:42:50.073Z,22.00
2022-08-25T06:43:21.976Z,22.03
2022-08-25T06:43:56.008Z,22.09
2022-08-25T06:44:36.785Z,22.17
2022-08-25T06:45:09.157Z,22.21
2022-08-25T06:45:41.804Z,22.33
2022-08-25T06:46:16.900Z,22.36
2022-08-25T06:46:49.407Z,22.36
2022-08-25T06:47:21.222Z,22.40
2022-08-25T06:47:52.914Z,22.44
2022-08-25T06:48:24.613Z,22.43
2022-08-25T06:48:56.961Z,22.46
2022-08-25T06:49:31.888Z,22.57
2022-08-25T06:50:06.222Z,22.60
2022-08-25T06:50:41.863Z,22.57
2022-08-25T06:51:17.121Z,22.61
2022-08-25T06:51:49.627Z,22.68
2022-08-25T06:52:21.271Z,22.75
2022-08-25T06:52:59.464Z,22.74
2022-08-25T06:53:31.080Z,22.78
2022-08-25T06:54:04.128Z,22.85
2022-08-25T06:54:35.928Z,22.87
2022-08-25T06:55:07.751Z,22.77
2022-08-25T06:55:39.990Z,22.85
2022-08-25T06:56:11.883Z,22.92
2022-08-25T06:56:43.493Z,22.95
2022-08-25T06:57:15.711Z,23.01
2022-08-25T06:57:47.276Z,23.05
2022-08-25T06:58:18.844Z,23.09
2022-08-25T06:58:50.434Z,23.18
2022-08-25T06:59:22.014Z,23.19
2022-08-25T06:59:53.827Z,23.20
2022-08-25T07:00:30.535Z,23.19
2022-08-25T07:01:15.662Z,23.22
2022-08-25T07:01:49.735Z,23.26
2022-08-25T07:02:22.733Z,23.32
2022-08-25T07:02:55.379Z,23.39
2022-08-25T07:03:27.094Z,23.49
2022-08-25T07:04:01.016Z,23.46
2022-08-25T07:04:34.049Z,23.53
2022-08-25T07:05:08.291Z,23.66
2022-08-25T07:05:43.875Z,23.71
2022-08-25T07:06:18.234Z,23.62
2022-08-25T07:06:50.256Z,23.59
2022-08-25T07:07:22.598Z,23.46
2022-08-25T07:07:54.497Z,23.57
2022-08-25T07:08:26.649Z,23.62
2022-08-25T07:08:58.488Z,23.69
2022-08-25T07:09:30.716Z,23.66